createdAt,value
2023-05-12T00:01:15.568Z,1.80
2023-05-12T00:04:17.111Z,1.90
2023-05-12T00:07:18.607Z,1.87
2023-05-12T00:10:20.433Z,1.58
2023-05-12T00:13:24.075Z,1.73
2023-05-12T00:16:25.647Z,1.65
2023-05-12T00:19:27.358Z,1.58
2023-05-12T00:22:28.979Z,1.95
2023-05-12T00:25:30.636Z,1.65
2023-05-12T00:28:32.391Z,1.40
2023-05-12T00:31:34.018Z,1.60
2023-05-12T00:34:35.715Z,2.10
2023-05-12T00:37:37.270Z,1.85
2023-05-12T00:40:39.093Z,1.83
2023-05-12T00:43:40.568Z,1.85
2023-05-12T00:46:42.109Z,1.98
2023-05-12T00:49:43.717Z,1.87
2023-05-12T00:52:46.283Z,1.90
2023-05-12T00:55:47.781Z,1.70
2023-05-12T00:58:49.311Z,2.17
2023-05-12T01:01:51.176Z,1.90
2023-05-12T01:04:52.720Z,2.45
2023-05-12T01:07:54.380Z,2.15
2023-05-12T01:10:55.900Z,2.05
2023-05-12T01:13:57.412Z,2.22
2023-05-12T01:17:00.149Z,2.17
2023-05-12T01:20:02.964Z,1.70
2023-05-12T01:23:05.523Z,2.28
2023-05-12T01:26:08.002Z,2.20
2023-05-12T01:29:09.696Z,1.90
2023-05-12T01:32:11.489Z,2.12
2023-05-12T01:35:13.521Z,2.22
2023-05-12T01:38:15.074Z,1.98
2023-05-12T01:41:16.687Z,2.20
2023-05-12T01:44:18.301Z,2.12
2023-05-12T01:47:20.985Z,2.47
2023-05-12T01:50:22.563Z,1.92
2023-05-12T01:53:24.130Z,2.10
2023-05-12T01:56:26.588Z,2.33
2023-05-12T01:59:28.123Z,1.98
2023-05-12T02:02:31.689Z,1.90
2023-05-12T02:05:33.366Z,2.20
2023-05-12T02:08:34.957Z,3.15
2023-05-12T02:11:37.574Z,4.10
2023-05-12T02:14:39.073Z,4.30
2023-05-12T02:17:40.751Z,3.15
2023-05-12T02:20:42.336Z,3.03
2023-05-12T02:23:43.874Z,2.30
2023-05-12T02:26:45.519Z,2.50
2023-05-12T02:29:47.151Z,2.15
2023-05-12T02:32:48.884Z,2.05
2023-05-12T02:35:50.673Z,2.47
2023-05-12T02:38:52.179Z,2.75
2023-05-12T02:41:53.732Z,2.42
2023-05-12T02:44:55.267Z,3.40
2023-05-12T02:47:56.949Z,3.00
2023-05-12T02:50:58.814Z,12.48
2023-05-12T02:54:00.337Z,14.68
2023-05-12T02:57:05.003Z,11.20
2023-05-12T03:00:06.833Z,4.47
2023-05-12T03:03:08.548Z,4.57
2023-05-12T03:06:10.341Z,3.60
2023-05-12T03:09:11.936Z,3.20
2023-05-12T03:12:13.498Z,3.33
2023-05-12T03:15:15.040Z,2.67
2023-05-12T03:18:16.513Z,2.33
2023-05-12T03:21:18.051Z,2.45
2023-05-12T03:24:19.714Z,2.85
2023-05-12T03:27:21.223Z,2.20
2023-05-12T03:30:22.845Z,2.55
2023-05-12T03:33:24.360Z,2.50
2023-05-12T03:36:25.883Z,2.87
2023-05-12T03:39:27.425Z,2.70
2023-05-12T03:42:28.944Z,2.50
2023-05-12T03:45:30.484Z,2.50
2023-05-12T03:48:32.033Z,2.30
2023-05-12T03:51:33.540Z,2.95
2023-05-12T03:54:37.143Z,2.25
2023-05-12T03:57:39.549Z,2.22
2023-05-12T04:00:41.120Z,2.60
2023-05-12T04:03:43.342Z,2.60
2023-05-12T04:06:44.947Z,2.65
2023-05-12T04:09:46.688Z,2.75
2023-05-12T04:12:48.239Z,2.75
2023-05-12T04:15:50.270Z,2.50
2023-05-12T04:18:51.989Z,2.95
2023-05-12T04:21:53.582Z,2.42
2023-05-12T04:24:55.128Z,2.90
2023-05-12T04:27:56.682Z,2.72
2023-05-12T04:31:02.471Z,2.90
2023-05-12T04:34:04.041Z,3.15
2023-05-12T04:37:05.657Z,2.62
2023-05-12T04:40:08.177Z,2.15
2023-05-12T04:43:59.918Z,3.00
2023-05-12T04:46:31.264Z,2.55
2023-05-12T04:49:32.742Z,2.45
2023-05-12T04:52:34.262Z,2.10
2023-05-12T04:55:36.444Z,2.83
2023-05-12T04:58:38.458Z,2.37
2023-05-12T05:01:40.068Z,2.10
2023-05-12T05:04:41.599Z,2.50
2023-05-12T05:07:43.229Z,2.65
2023-05-12T05:10:44.745Z,2.70
2023-05-12T05:13:46.246Z,2.92
2023-05-12T05:16:48.560Z,2.42
2023-05-12T05:19:57.854Z,3.10
2023-05-12T05:23:00.310Z,2.90
2023-05-12T05:26:01.866Z,2.90
2023-05-12T05:29:04.547Z,2.50
2023-05-12T05:32:06.239Z,2.28
2023-05-12T05:35:08.450Z,2.45
2023-05-12T05:38:09.962Z,2.40
2023-05-12T05:41:11.591Z,2.90
2023-05-12T05:44:13.066Z,2.30
2023-05-12T05:47:14.616Z,2.87
2023-05-12T05:50:16.443Z,3.60
2023-05-12T05:53:21.020Z,3.90
2023-05-12T05:56:23.143Z,2.72
2023-05-12T05:59:24.650Z,3.60
2023-05-12T06:02:45.081Z,3.67
2023-05-12T06:05:46.705Z,2.65
2023-05-12T06:08:48.264Z,3.25
2023-05-12T06:11:50.043Z,2.85
2023-05-12T06:14:51.613Z,2.37
2023-05-12T06:17:53.204Z,2.45
2023-05-12T06:20:54.848Z,2.67
2023-05-12T06:23:56.924Z,2.45
2023-05-12T06:26:58.466Z,2.60
2023-05-12T06:29:59.970Z,2.60
2023-05-12T06:33:01.508Z,2.50
2023-05-12T06:36:03.049Z,4.97
2023-05-12T06:39:04.736Z,2.80
2023-05-12T06:42:06.425Z,2.80
2023-05-12T06:45:08.190Z,2.83
2023-05-12T06:48:10.406Z,2.70
2023-05-12T06:51:13.133Z,2.83
2023-05-12T06:54:14.669Z,4.28
2023-05-12T06:57:16.279Z,3.00
2023-05-12T07:00:18.012Z,2.92
2023-05-12T07:03:19.663Z,2.65
2023-05-12T07:06:21.414Z,2.50
2023-05-12T07:09:22.996Z,2.85
2023-05-12T07:12:24.488Z,2.80
2023-05-12T07:15:26.098Z,3.67
2023-05-12T07:18:27.686Z,2.70
2023-05-12T07:21:29.804Z,2.65
2023-05-12T07:24:31.377Z,3.33
2023-05-12T07:27:32.885Z,4.90
2023-05-12T07:30:34.412Z,2.97
2023-05-12T07:33:36.224Z,3.08
2023-05-12T07:36:37.736Z,3.78
2023-05-12T07:39:39.690Z,3.87
2023-05-12T07:42:41.213Z,4.37
2023-05-12T07:45:42.796Z,3.28
2023-05-12T07:48:44.326Z,3.80
2023-05-12T07:51:45.828Z,3.60
2023-05-12T07:54:47.325Z,3.78
2023-05-12T07:57:51.897Z,3.67
2023-05-12T08:00:54.591Z,4.40
2023-05-12T08:03:56.351Z,4.80
2023-05-12T08:06:57.954Z,4.62
2023-05-12T08:09:59.505Z,8.10
2023-05-12T08:13:01.022Z,3.90
2023-05-12T08:16:02.529Z,4.20
2023-05-12T08:19:04.158Z,4.85
2023-05-12T08:22:05.714Z,4.20
2023-05-12T08:25:08.718Z,4.12
2023-05-12T08:28:12.836Z,4.85
2023-05-12T08:31:14.468Z,5.43
2023-05-12T08:34:16.186Z,5.40
2023-05-12T08:37:17.712Z,4.70
2023-05-12T08:40:23.117Z,4.65
2023-05-12T08:43:26.297Z,4.10
2023-05-12T08:46:28.000Z,3.95
2023-05-12T08:49:31.392Z,4.35
2023-05-12T08:52:33.581Z,4.40
2023-05-12T08:55:35.258Z,4.20
2023-05-12T08:58:41.517Z,3.45
2023-05-12T09:01:43.937Z,4.13
2023-05-12T09:04:45.982Z,4.37
2023-05-12T09:07:49.710Z,4.10
2023-05-12T09:10:51.405Z,4.00
2023-05-12T09:13:52.954Z,4.12
2023-05-12T09:16:57.738Z,4.12
2023-05-12T09:19:59.341Z,4.43
2023-05-12T09:23:11.707Z,3.62
2023-05-12T09:26:13.290Z,3.50
2023-05-12T09:29:24.052Z,3.60
2023-05-12T09:32:33.113Z,3.27
2023-05-12T09:35:38.562Z,3.10
2023-05-12T09:38:40.046Z,2.53
2023-05-12T09:41:42.780Z,2.90
2023-05-12T09:44:44.405Z,3.40
2023-05-12T09:47:45.996Z,3.08
2023-05-12T09:50:48.415Z,3.17
2023-05-12T09:53:50.236Z,3.08
2023-05-12T09:56:52.868Z,3.03
2023-05-12T09:59:54.633Z,3.00
2023-05-12T10:02:56.337Z,3.42
2023-05-12T10:05:58.856Z,2.90
2023-05-12T10:09:04.024Z,3.03
2023-05-12T10:12:06.502Z,3.40
2023-05-12T10:15:09.706Z,3.30
2023-05-12T10:18:12.993Z,3.47
2023-05-12T10:21:15.099Z,4.30
2023-05-12T10:24:17.034Z,5.03
2023-05-12T10:27:19.035Z,4.07
2023-05-12T10:30:20.735Z,5.60
2023-05-12T10:33:22.269Z,6.72
2023-05-12T10:36:23.887Z,10.88
2023-05-12T10:39:29.743Z,9.75
2023-05-12T10:42:38.002Z,8.60
2023-05-12T10:45:39.625Z,11.90
2023-05-12T10:48:59.466Z,8.40
2023-05-12T10:52:01.768Z,7.80
2023-05-12T10:55:04.200Z,6.70
2023-05-12T10:58:07.465Z,6.30
2023-05-12T11:01:10.021Z,7.15
2023-05-12T11:04:17.162Z,6.22
2023-05-12T11:07:24.480Z,6.05
2023-05-12T11:13:29.306Z,5.90
2023-05-12T11:16:30.814Z,4.53
2023-05-12T11:19:32.918Z,4.87
2023-05-12T11:22:34.426Z,5.35
2023-05-12T11:25:35.977Z,5.07
2023-05-12T11:28:40.930Z,4.97
2023-05-12T11:31:46.928Z,4.28
2023-05-12T11:34:48.727Z,3.50
2023-05-12T11:37:50.211Z,3.37
2023-05-12T11:40:51.736Z,4.10
2023-05-12T11:43:53.381Z,3.22
2023-05-12T11:47:01.850Z,3.78
2023-05-12T11:50:03.448Z,3.92
2023-05-12T11:53:04.957Z,3.75
2023-05-12T11:56:06.500Z,3.72
2023-05-12T11:59:08.029Z,3.62
2023-05-12T12:02:19.326Z,3.53
2023-05-12T12:05:21.781Z,3.90
2023-05-12T12:08:23.609Z,4.00
2023-05-12T12:11:28.381Z,4.00
2023-05-12T12:14:33.452Z,3.45
2023-05-12T12:17:34.996Z,3.53
2023-05-12T12:20:36.509Z,3.90
2023-05-12T12:23:47.625Z,3.42
2023-05-12T12:26:52.240Z,3.62
2023-05-12T12:29:53.724Z,3.87
2023-05-12T12:32:55.322Z,3.83
2023-05-12T12:35:56.970Z,4.57
2023-05-12T12:38:58.848Z,5.07
2023-05-12T12:42:00.514Z,3.72
2023-05-12T12:45:03.020Z,3.72
2023-05-12T12:48:06.675Z,4.60
2023-05-12T12:51:08.276Z,4.03
2023-05-12T12:54:09.766Z,5.53
2023-05-12T12:57:11.472Z,3.97
2023-05-12T13:00:13.568Z,4.93
2023-05-12T13:03:15.136Z,5.25
2023-05-12T13:06:16.790Z,5.43
2023-05-12T13:09:19.977Z,5.68
2023-05-12T13:12:21.782Z,5.15
2023-05-12T13:15:23.849Z,3.90
2023-05-12T13:18:25.716Z,5.20
2023-05-12T13:21:27.429Z,3.70
2023-05-12T13:24:29.896Z,3.87
2023-05-12T13:27:31.439Z,4.00
2023-05-12T13:30:32.964Z,4.32
2023-05-12T13:33:34.678Z,4.12
2023-05-12T13:36:36.453Z,4.00
2023-05-12T13:39:37.953Z,4.07
2023-05-12T13:42:39.448Z,3.95
2023-05-12T13:45:41.160Z,3.78
2023-05-12T13:48:42.678Z,3.87
2023-05-12T13:51:44.175Z,4.07
2023-05-12T13:54:45.740Z,4.25
2023-05-12T13:57:47.214Z,4.25
2023-05-12T14:00:48.904Z,4.30
2023-05-12T14:03:51.066Z,3.80
2023-05-12T14:06:53.844Z,3.78
2023-05-12T14:09:55.395Z,3.72
2023-05-12T14:12:56.890Z,4.10
2023-05-12T14:15:58.656Z,4.03
2023-05-12T14:19:00.600Z,3.95
2023-05-12T14:22:05.886Z,4.82
2023-05-12T14:25:11.435Z,4.32
2023-05-12T14:28:13.031Z,5.12
2023-05-12T14:31:14.701Z,4.53
2023-05-12T14:34:16.264Z,4.57
2023-05-12T14:37:17.762Z,4.55
2023-05-12T14:40:19.271Z,4.45
2023-05-12T14:43:20.893Z,4.90
2023-05-12T14:46:22.598Z,5.32
2023-05-12T14:49:24.595Z,5.07
2023-05-12T14:52:26.104Z,4.72
2023-05-12T14:55:29.813Z,5.18
2023-05-12T14:58:31.572Z,5.45
2023-05-12T15:01:33.146Z,5.43
2023-05-12T15:04:34.808Z,5.10
2023-05-12T15:07:36.873Z,5.20
2023-05-12T15:10:38.522Z,5.00
2023-05-12T15:13:40.151Z,5.05
2023-05-12T15:16:41.934Z,5.20
2023-05-12T15:19:43.631Z,4.60
2023-05-12T15:22:45.103Z,4.78
2023-05-12T15:25:46.595Z,4.95
2023-05-12T15:28:48.107Z,4.55
2023-05-12T15:31:49.715Z,5.00
2023-05-12T15:34:51.777Z,4.68
2023-05-12T15:37:53.436Z,5.12
2023-05-12T15:40:54.959Z,5.12
2023-05-12T15:43:56.488Z,5.53
2023-05-12T15:46:58.480Z,4.68
2023-05-12T15:50:00.124Z,5.62
2023-05-12T15:53:02.051Z,5.35
2023-05-12T15:56:04.202Z,5.60
2023-05-12T15:59:06.008Z,5.47
2023-05-12T16:02:07.846Z,5.00
2023-05-12T16:05:09.797Z,5.28
2023-05-12T16:08:11.421Z,5.45
2023-05-12T16:11:13.216Z,5.05
2023-05-12T16:14:15.031Z,5.25
2023-05-12T16:17:16.671Z,5.60
2023-05-12T16:20:18.235Z,6.05
2023-05-12T16:23:19.723Z,7.18
2023-05-12T16:26:21.244Z,8.18
2023-05-12T16:29:22.754Z,5.87
2023-05-12T16:32:24.326Z,6.00
2023-05-12T16:35:26.586Z,6.65
2023-05-12T16:38:29.642Z,6.37
2023-05-12T16:41:31.797Z,6.03
2023-05-12T16:44:33.598Z,6.55
2023-05-12T16:47:35.544Z,6.78
2023-05-12T16:50:37.154Z,7.43
2023-05-12T16:53:38.773Z,6.43
2023-05-12T16:56:40.294Z,6.12
2023-05-12T16:59:41.906Z,6.10
2023-05-12T17:02:43.707Z,6.22
2023-05-12T17:05:45.918Z,6.18
2023-05-12T17:08:47.404Z,5.75
2023-05-12T17:11:49.598Z,5.62
2023-05-12T17:14:59.661Z,6.10
2023-05-12T17:21:11.526Z,5.28
2023-05-12T17:24:13.062Z,5.80
2023-05-12T17:27:14.555Z,6.65
2023-05-12T17:30:16.647Z,5.82
2023-05-12T17:33:18.167Z,6.37
2023-05-12T17:36:19.894Z,6.18
2023-05-12T17:39:21.381Z,5.40
2023-05-12T17:42:23.177Z,5.78
2023-05-12T17:45:24.687Z,4.93
2023-05-12T17:48:26.502Z,4.60
2023-05-12T17:51:29.885Z,4.60
2023-05-12T17:54:31.604Z,4.03
2023-05-12T17:57:33.270Z,5.37
2023-05-12T18:00:34.843Z,4.50
2023-05-12T18:03:36.848Z,4.80
2023-05-12T18:06:38.774Z,5.37
2023-05-12T18:09:40.342Z,5.60
2023-05-12T18:12:41.877Z,5.57
2023-05-12T18:15:43.412Z,5.62
2023-05-12T18:18:45.927Z,5.15
2023-05-12T18:21:47.517Z,5.82
2023-05-12T18:24:50.653Z,5.37
2023-05-12T18:27:52.816Z,5.05
2023-05-12T18:30:56.274Z,5.22
2023-05-12T18:37:03.708Z,5.57
2023-05-12T18:40:07.167Z,5.37
2023-05-12T18:43:08.764Z,5.22
2023-05-12T18:46:10.414Z,6.32
2023-05-12T18:49:12.097Z,5.60
2023-05-12T18:52:13.655Z,6.45
2023-05-12T18:55:15.472Z,7.05
2023-05-12T18:58:17.429Z,6.95
2023-05-12T19:01:19.019Z,5.87
2023-05-12T19:04:22.108Z,6.93
2023-05-12T19:07:23.650Z,7.35
2023-05-12T19:10:25.231Z,7.90
2023-05-12T19:13:27.071Z,7.78
2023-05-12T19:16:30.982Z,7.75
2023-05-12T19:19:33.580Z,6.32
2023-05-12T19:22:35.751Z,6.68
2023-05-12T19:25:37.253Z,7.10
2023-05-12T19:28:39.130Z,6.50
2023-05-12T19:31:40.902Z,6.80
2023-05-12T19:34:42.649Z,6.87
2023-05-12T19:37:44.402Z,6.87
2023-05-12T19:40:45.935Z,6.90
2023-05-12T19:43:47.564Z,5.97
2023-05-12T19:46:49.183Z,7.18
2023-05-12T19:49:53.812Z,6.43
2023-05-12T19:52:55.440Z,6.18
2023-05-12T19:55:57.085Z,6.60
2023-05-12T19:58:58.652Z,5.95
2023-05-12T20:02:00.183Z,5.95
2023-05-12T20:05:01.819Z,6.18
2023-05-12T20:08:03.391Z,5.95
2023-05-12T20:11:04.876Z,5.97
2023-05-12T20:14:06.373Z,5.97
2023-05-12T20:17:09.184Z,6.12
2023-05-12T20:20:11.555Z,6.40
2023-05-12T20:23:13.077Z,5.68
2023-05-12T20:26:14.741Z,5.90
2023-05-12T20:29:20.892Z,6.47
2023-05-12T20:32:22.474Z,5.65
2023-05-12T20:35:24.156Z,5.50
2023-05-12T20:38:25.994Z,5.93
2023-05-12T20:41:27.996Z,6.62
2023-05-12T20:44:29.485Z,6.32
2023-05-12T20:47:34.201Z,6.22
2023-05-12T20:50:35.724Z,6.35
2023-05-12T20:53:37.258Z,7.25
2023-05-12T20:56:38.811Z,7.05
2023-05-12T20:59:40.283Z,7.10
2023-05-12T21:02:41.876Z,6.87
2023-05-12T21:05:47.730Z,7.30
2023-05-12T21:08:49.327Z,7.22
2023-05-12T21:11:50.819Z,6.60
2023-05-12T21:14:52.452Z,7.95
2023-05-12T21:17:54.067Z,7.15
2023-05-12T21:20:55.647Z,7.57
2023-05-12T21:23:57.239Z,7.53
2023-05-12T21:27:02.066Z,7.30
2023-05-12T21:30:03.744Z,7.47
2023-05-12T21:33:05.860Z,7.50
2023-05-12T21:36:07.554Z,7.68
2023-05-12T21:39:09.019Z,6.80
2023-05-12T21:42:10.490Z,6.97
2023-05-12T21:45:12.987Z,6.90
2023-05-12T21:48:15.279Z,6.25
2023-05-12T21:51:16.821Z,5.70
2023-05-12T21:54:18.352Z,6.07
2023-05-12T21:57:19.876Z,6.25
2023-05-12T22:00:21.651Z,5.57
2023-05-12T22:03:25.136Z,6.30
2023-05-12T22:06:26.965Z,6.10
2023-05-12T22:09:30.369Z,5.57
2023-05-12T22:12:32.791Z,5.80
2023-05-12T22:15:34.764Z,5.15
2023-05-12T22:18:37.750Z,5.37
2023-05-12T22:21:39.308Z,5.15
2023-05-12T22:24:40.895Z,5.12
2023-05-12T22:27:42.407Z,5.20
2023-05-12T22:30:43.967Z,5.03
2023-05-12T22:33:45.454Z,5.05
2023-05-12T22:36:47.126Z,4.78
2023-05-12T22:39:48.684Z,4.30
2023-05-12T22:42:50.231Z,4.07
2023-05-12T22:45:52.138Z,4.35
2023-05-12T22:48:53.665Z,4.20
2023-05-12T22:51:55.395Z,4.45
2023-05-12T22:54:56.928Z,4.20
2023-05-12T22:57:59.856Z,4.03
2023-05-12T23:01:01.489Z,4.30
2023-05-12T23:04:03.056Z,4.57
2023-05-12T23:07:06.931Z,4.72
2023-05-12T23:10:10.036Z,4.07
2023-05-12T23:13:11.566Z,4.30
2023-05-12T23:16:13.104Z,3.72
2023-05-12T23:19:15.055Z,4.15
2023-05-12T23:22:16.796Z,3.90
2023-05-12T23:25:18.374Z,3.65
2023-05-12T23:28:19.834Z,3.85
2023-05-12T23:31:21.358Z,4.12
2023-05-12T23:34:23.066Z,4.40
2023-05-12T23:37:24.913Z,4.22
2023-05-12T23:40:26.456Z,3.95
2023-05-12T23:43:28.110Z,3.72
2023-05-12T23:46:29.609Z,4.07
2023-05-12T23:49:31.161Z,3.90
2023-05-12T23:52:32.697Z,4.03
2023-05-12T23:55:34.389Z,4.45
2023-05-12T23:58:35.887Z,3.92
